sensor_id;sensor_type;location;lat;lon;timestamp;pressure;altitude;pressure_sealevel;temperature;humidity
12349;BME280;5974;42.710;27.258;2023-12-04T00:02:26;100726.63;;;5.10;100.00
12349;BME280;5974;42.710;27.258;2023-12-04T00:04:53;100724.03;;;5.08;100.00
12349;BME280;5974;42.710;27.258;2023-12-04T00:07:19;100733.53;;;5.08;100.00
12349;BME280;5974;42.710;27.258;2023-12-04T00:09:46;100712.53;;;5.36;100.00
12349;BME280;5974;42.710;27.258;2023-12-04T00:12:13;100716.00;;;5.35;100.00
12349;BME280;5974;42.710;27.258;2023-12-04T00:14:40;100714.59;;;5.03;100.00
12349;BME280;5974;42.710;27.258;2023-12-04T00:17:08;100690.47;;;4.98;100.00
12349;BME280;5974;42.710;27.258;2023-12-04T00:19:35;100675.78;;;4.98;100.00
12349;BME280;5974;42.710;27.258;2023-12-04T00:22:01;100676.66;;;4.92;100.00
12349;BME280;5974;42.710;27.258;2023-12-04T00:24:28;100670.84;;;4.69;100.00
12349;BME280;5974;42.710;27.258;2023-12-04T00:26:55;100680.47;;;4.51;100.00
12349;BME280;5974;42.710;27.258;2023-12-04T00:29:22;100702.97;;;4.43;100.00
12349;BME280;5974;42.710;27.258;2023-12-04T00:31:48;100710.69;;;4.44;100.00
12349;BME280;5974;42.710;27.258;2023-12-04T00:34:16;100713.19;;;4.59;100.00
12349;BME280;5974;42.710;27.258;2023-12-04T00:36:43;100714.84;;;4.72;100.00
12349;BME280;5974;42.710;27.258;2023-12-04T00:39:10;100712.38;;;4.53;100.00
12349;BME280;5974;42.710;27.258;2023-12-04T00:41:37;100703.66;;;4.66;100.00
12349;BME280;5974;42.710;27.258;2023-12-04T00:44:04;100659.91;;;4.28;100.00
12349;BME280;5974;42.710;27.258;2023-12-04T00:46:31;100692.53;;;4.53;100.00
12349;BME280;5974;42.710;27.258;2023-12-04T00:48:57;100705.56;;;4.38;100.00
12349;BME280;5974;42.710;27.258;2023-12-04T00:51:26;100704.75;;;4.33;100.00
12349;BME280;5974;42.710;27.258;2023-12-04T00:53:53;100707.31;;;4.34;100.00
12349;BME280;5974;42.710;27.258;2023-12-04T00:56:20;100695.19;;;4.41;100.00
12349;BME280;5974;42.710;27.258;2023-12-04T00:58:46;100694.28;;;4.51;100.00
12349;BME280;5974;42.710;27.258;2023-12-04T01:01:14;100702.91;;;4.50;100.00
12349;BME280;5974;42.710;27.258;2023-12-04T01:03:41;100713.28;;;4.47;100.00
12349;BME280;5974;42.710;27.258;2023-12-04T01:06:08;100726.13;;;4.64;100.00
12349;BME280;5974;42.710;27.258;2023-12-04T01:08:48;100749.59;;;4.35;100.00
12349;BME280;5974;42.710;27.258;2023-12-04T01:11:16;100736.56;;;4.47;100.00
12349;BME280;5974;42.710;27.258;2023-12-04T01:13:44;100733.13;;;4.44;100.00
12349;BME280;5974;42.710;27.258;2023-12-04T01:16:11;100747.84;;;4.34;100.00
12349;BME280;5974;42.710;27.258;2023-12-04T01:18:38;100757.44;;;4.20;100.00
12349;BME280;5974;42.710;27.258;2023-12-04T01:21:05;100754.78;;;4.29;100.00
12349;BME280;5974;42.710;27.258;2023-12-04T01:23:34;100754.72;;;4.41;100.00
12349;BME280;5974;42.710;27.258;2023-12-04T01:26:03;100739.34;;;4.11;100.00
12349;BME280;5974;42.710;27.258;2023-12-04T01:28:30;100730.78;;;4.00;100.00
12349;BME280;5974;42.710;27.258;2023-12-04T01:30:57;100725.66;;;3.81;100.00
12349;BME280;5974;42.710;27.258;2023-12-04T01:33:23;100736.03;;;3.75;100.00
12349;BME280;5974;42.710;27.258;2023-12-04T01:35:50;100704.22;;;3.52;100.00
12349;BME280;5974;42.710;27.258;2023-12-04T01:38:17;100711.13;;;3.40;100.00
12349;BME280;5974;42.710;27.258;2023-12-04T01:40:44;100725.81;;;3.25;100.00
12349;BME280;5974;42.710;27.258;2023-12-04T01:43:12;100709.47;;;2.93;100.00
12349;BME280;5974;42.710;27.258;2023-12-04T01:45:40;100751.66;;;3.12;100.00
12349;BME280;5974;42.710;27.258;2023-12-04T01:48:07;100755.94;;;3.20;100.00
12349;BME280;5974;42.710;27.258;2023-12-04T01:50:35;100758.53;;;3.22;100.00
12349;BME280;5974;42.710;27.258;2023-12-04T01:53:03;100770.59;;;3.18;100.00
12349;BME280;5974;42.710;27.258;2023-12-04T01:55:30;100774.91;;;3.32;100.00
12349;BME280;5974;42.710;27.258;2023-12-04T01:57:59;100783.50;;;3.44;100.00
12349;BME280;5974;42.710;27.258;2023-12-04T02:00:28;100780.06;;;3.35;100.00
12349;BME280;5974;42.710;27.258;2023-12-04T02:02:56;100779.22;;;3.13;100.00
12349;BME280;5974;42.710;27.258;2023-12-04T02:05:23;100799.88;;;3.16;100.00
12349;BME280;5974;42.710;27.258;2023-12-04T02:07:51;100794.69;;;3.43;100.00
12349;BME280;5974;42.710;27.258;2023-12-04T02:10:19;100799.00;;;3.40;100.00
12349;BME280;5974;42.710;27.258;2023-12-04T02:12:46;100811.06;;;3.12;100.00
12349;BME280;5974;42.710;27.258;2023-12-04T02:15:13;100808.50;;;3.28;100.00
12349;BME280;5974;42.710;27.258;2023-12-04T02:17:42;100811.06;;;3.16;100.00
12349;BME280;5974;42.710;27.258;2023-12-04T02:20:12;100815.34;;;3.26;100.00
12349;BME280;5974;42.710;27.258;2023-12-04T02:22:39;100777.47;;;2.85;100.00
12349;BME280;5974;42.710;27.258;2023-12-04T02:25:09;100814.47;;;2.96;100.00
12349;BME280;5974;42.710;27.258;2023-12-04T02:27:39;100811.81;;;2.59;100.00
12349;BME280;5974;42.710;27.258;2023-12-04T02:30:11;100804.09;;;2.62;100.00
12349;BME280;5974;42.710;27.258;2023-12-04T02:32:42;100791.16;;;2.50;100.00
12349;BME280;5974;42.710;27.258;2023-12-04T02:35:10;100804.84;;;2.34;100.00
12349;BME280;5974;42.710;27.258;2023-12-04T02:37:37;100772.91;;;1.99;100.00
12349;BME280;5974;42.710;27.258;2023-12-04T02:40:07;100795.31;;;2.12;100.00
12349;BME280;5974;42.710;27.258;2023-12-04T02:42:34;100806.50;;;2.11;100.00
12349;BME280;5974;42.710;27.258;2023-12-04T02:45:01;100782.41;;;2.03;100.00
12349;BME280;5974;42.710;27.258;2023-12-04T02:47:27;100790.13;;;2.00;100.00
12349;BME280;5974;42.710;27.258;2023-12-04T02:49:54;100827.03;;;1.93;100.00
12349;BME280;5974;42.710;27.258;2023-12-04T02:52:21;100797.78;;;1.91;100.00
12349;BME280;5974;42.710;27.258;2023-12-04T02:54:48;100814.03;;;1.79;100.00
12349;BME280;5974;42.710;27.258;2023-12-04T02:57:16;100816.59;;;1.72;100.00
12349;BME280;5974;42.710;27.258;2023-12-04T02:59:42;100824.31;;;1.72;100.00
12349;BME280;5974;42.710;27.258;2023-12-04T03:02:09;100821.66;;;1.64;100.00
12349;BME280;5974;42.710;27.258;2023-12-04T03:04:36;100838.84;;;1.62;100.00
12349;BME280;5974;42.710;27.258;2023-12-04T03:07:03;100847.41;;;1.56;100.00
12349;BME280;5974;42.710;27.258;2023-12-04T03:09:29;100862.00;;;1.56;100.00
12349;BME280;5974;42.710;27.258;2023-12-04T03:11:56;100861.09;;;1.54;100.00
12349;BME280;5974;42.710;27.258;2023-12-04T03:14:24;100865.47;;;1.61;100.00
12349;BME280;5974;42.710;27.258;2023-12-04T03:16:51;100857.72;;;1.59;100.00
12349;BME280;5974;42.710;27.258;2023-12-04T03:19:18;100862.78;;;1.47;100.00
12349;BME280;5974;42.710;27.258;2023-12-04T03:21:44;100875.75;;;1.56;100.00
12349;BME280;5974;42.710;27.258;2023-12-04T03:24:11;100867.16;;;1.60;100.00
12349;BME280;5974;42.710;27.258;2023-12-04T03:26:38;100892.06;;;1.58;100.00
12349;BME280;5974;42.710;27.258;2023-12-04T03:29:05;100876.50;;;1.48;100.00
12349;BME280;5974;42.710;27.258;2023-12-04T03:31:33;100900.63;;;1.54;100.00
12349;BME280;5974;42.710;27.258;2023-12-04T03:34:02;100885.84;;;1.34;100.00
12349;BME280;5974;42.710;27.258;2023-12-04T03:36:28;100891.19;;;1.53;100.00
12349;BME280;5974;42.710;27.258;2023-12-04T03:38:55;100880.75;;;1.40;100.00
12349;BME280;5974;42.710;27.258;2023-12-04T03:41:22;100879.84;;;1.36;100.00
12349;BME280;5974;42.710;27.258;2023-12-04T03:43:49;100897.81;;;1.29;100.00
12349;BME280;5974;42.710;27.258;2023-12-04T03:46:15;100898.69;;;1.31;100.00
12349;BME280;5974;42.710;27.258;2023-12-04T03:48:44;100891.75;;;1.24;100.00
12349;BME280;5974;42.710;27.258;2023-12-04T03:51:11;100901.19;;;1.23;100.00
12349;BME280;5974;42.710;27.258;2023-12-04T03:53:38;100891.63;;;1.10;100.00
12349;BME280;5974;42.710;27.258;2023-12-04T03:56:06;100901.13;;;1.16;100.00
12349;BME280;5974;42.710;27.258;2023-12-04T03:58:33;100925.94;;;1.09;100.00
12349;BME280;5974;42.710;27.258;2023-12-04T04:00:59;100913.88;;;1.05;100.00
12349;BME280;5974;42.710;27.258;2023-12-04T04:03:26;100891.50;;;0.98;100.00
12349;BME280;5974;42.710;27.258;2023-12-04T04:05:54;100909.56;;;1.01;100.00
12349;BME280;5974;42.710;27.258;2023-12-04T04:08:21;100918.97;;;0.99;100.00
12349;BME280;5974;42.710;27.258;2023-12-04T04:10:48;100930.22;;;1.07;100.00
12349;BME280;5974;42.710;27.258;2023-12-04T04:13:15;100919.94;;;1.10;100.00
12349;BME280;5974;42.710;27.258;2023-12-04T04:15:41;100938.00;;;1.15;100.00
12349;BME280;5974;42.710;27.258;2023-12-04T04:18:08;100939.78;;;1.19;100.00
12349;BME280;5974;42.710;27.258;2023-12-04T04:20:35;100940.66;;;1.21;100.00
12349;BME280;5974;42.710;27.258;2023-12-04T04:23:03;100961.19;;;1.13;100.00
12349;BME280;5974;42.710;27.258;2023-12-04T04:25:30;100937.09;;;1.11;100.00
12349;BME280;5974;42.710;27.258;2023-12-04T04:27:56;100941.38;;;1.09;100.00
12349;BME280;5974;42.710;27.258;2023-12-04T04:30:23;100941.34;;;1.06;100.00
12349;BME280;5974;42.710;27.258;2023-12-04T04:32:50;100943.97;;;1.07;100.00
12349;BME280;5974;42.710;27.258;2023-12-04T04:35:16;100934.53;;;1.11;100.00
12349;BME280;5974;42.710;27.258;2023-12-04T04:37:45;100931.78;;;0.94;100.00
12349;BME280;5974;42.710;27.258;2023-12-04T04:40:13;100953.38;;;1.08;100.00
12349;BME280;5974;42.710;27.258;2023-12-04T04:42:40;100950.81;;;1.08;100.00
12349;BME280;5974;42.710;27.258;2023-12-04T04:45:07;100959.31;;;1.00;100.00
12349;BME280;5974;42.710;27.258;2023-12-04T04:47:34;100940.38;;;0.96;100.00
12349;BME280;5974;42.710;27.258;2023-12-04T04:50:01;100950.72;;;0.99;100.00
12349;BME280;5974;42.710;27.258;2023-12-04T04:52:28;100954.97;;;0.96;100.00
12349;BME280;5974;42.710;27.258;2023-12-04T04:54:55;100958.38;;;0.93;100.00
12349;BME280;5974;42.710;27.258;2023-12-04T04:57:23;100945.44;;;0.86;100.00
12349;BME280;5974;42.710;27.258;2023-12-04T04:59:50;100960.94;;;0.93;100.00
12349;BME280;5974;42.710;27.258;2023-12-04T05:02:16;100980.66;;;0.91;100.00
12349;BME280;5974;42.710;27.258;2023-12-04T05:04:43;100961.75;;;0.88;100.00
12349;BME280;5974;42.710;27.258;2023-12-04T05:07:10;100979.75;;;0.89;100.00
12349;BME280;5974;42.710;27.258;2023-12-04T05:09:37;100982.38;;;0.91;100.00
12349;BME280;5974;42.710;27.258;2023-12-04T05:12:04;100988.34;;;0.88;100.00
12349;BME280;5974;42.710;27.258;2023-12-04T05:14:32;100978.13;;;0.96;100.00
12349;BME280;5974;42.710;27.258;2023-12-04T05:16:59;100963.59;;;0.98;100.00
12349;BME280;5974;42.710;27.258;2023-12-04T05:19:26;100968.81;;;1.05;100.00
12349;BME280;5974;42.710;27.258;2023-12-04T05:21:53;100979.13;;;1.07;100.00
12349;BME280;5974;42.710;27.258;2023-12-04T05:24:21;100961.06;;;1.04;100.00
12349;BME280;5974;42.710;27.258;2023-12-04T05:26:47;100963.78;;;1.16;100.00
12349;BME280;5974;42.710;27.258;2023-12-04T05:29:14;100967.22;;;1.17;100.00
12349;BME280;5974;42.710;27.258;2023-12-04T05:31:42;100974.16;;;1.22;100.00
12349;BME280;5974;42.710;27.258;2023-12-04T05:34:09;100965.56;;;1.22;100.00
12349;BME280;5974;42.710;27.258;2023-12-04T05:36:36;100967.31;;;1.24;100.00
12349;BME280;5974;42.710;27.258;2023-12-04T05:39:02;100976.75;;;1.27;100.00
12349;BME280;5974;42.710;27.258;2023-12-04T05:41:30;100972.50;;;1.29;100.00
12349;BME280;5974;42.710;27.258;2023-12-04T05:43:56;100962.19;;;1.27;100.00
12349;BME280;5974;42.710;27.258;2023-12-04T05:46:23;100998.28;;;1.30;100.00
12349;BME280;5974;42.710;27.258;2023-12-04T05:48:51;100963.81;;;1.19;100.00
12349;BME280;5974;42.710;27.258;2023-12-04T05:51:18;101010.34;;;1.34;100.00
12349;BME280;5974;42.710;27.258;2023-12-04T05:53:44;100986.28;;;1.34;100.00
12349;BME280;5974;42.710;27.258;2023-12-04T05:56:12;100999.25;;;1.38;100.00
12349;BME280;5974;42.710;27.258;2023-12-04T05:58:38;100988.94;;;1.38;100.00
12349;BME280;5974;42.710;27.258;2023-12-04T06:01:05;101018.09;;;1.39;100.00
12349;BME280;5974;42.710;27.258;2023-12-04T06:03:33;101015.56;;;1.42;100.00
12349;BME280;5974;42.710;27.258;2023-12-04T06:06:01;101028.50;;;1.46;100.00
12349;BME280;5974;42.710;27.258;2023-12-04T06:08:28;101041.38;;;1.46;100.00
12349;BME280;5974;42.710;27.258;2023-12-04T06:10:54;101048.38;;;1.56;100.00
12349;BME280;5974;42.710;27.258;2023-12-04T06:13:21;101074.97;;;1.57;100.00
12349;BME280;5974;42.710;27.258;2023-12-04T06:15:48;101060.53;;;1.68;100.00
12349;BME280;5974;42.710;27.258;2023-12-04T06:18:15;101072.69;;;1.81;100.00
12349;BME280;5974;42.710;27.258;2023-12-04T06:20:41;101075.44;;;1.96;100.00
12349;BME280;5974;42.710;27.258;2023-12-04T06:23:10;101067.97;;;2.30;100.00
12349;BME280;5974;42.710;27.258;2023-12-04T06:25:38;101056.88;;;2.40;100.00
12349;BME280;5974;42.710;27.258;2023-12-04T06:28:05;101062.78;;;2.25;100.00
12349;BME280;5974;42.710;27.258;2023-12-04T06:30:32;101053.31;;;2.24;100.00
12349;BME280;5974;42.710;27.258;2023-12-04T06:33:00;101056.72;;;2.22;100.00
12349;BME280;5974;42.710;27.258;2023-12-04T06:35:27;101058.44;;;2.23;100.00
12349;BME280;5974;42.710;27.258;2023-12-04T06:37:54;101067.94;;;2.28;100.00
12349;BME280;5974;42.710;27.258;2023-12-04T06:40:24;101072.28;;;2.29;100.00
12349;BME280;5974;42.710;27.258;2023-12-04T06:42:51;101075.69;;;2.28;100.00
12349;BME280;5974;42.710;27.258;2023-12-04T06:45:19;101073.09;;;2.25;100.00
12349;BME280;5974;42.710;27.258;2023-12-04T06:47:50;101081.72;;;2.29;100.00
12349;BME280;5974;42.710;27.258;2023-12-04T06:50:17;101086.53;;;1.92;100.00
12349;BME280;5974;42.710;27.258;2023-12-04T06:52:44;101091.75;;;1.97;100.00
12349;BME280;5974;42.710;27.258;2023-12-04T06:55:11;101089.31;;;2.13;100.00
12349;BME280;5974;42.710;27.258;2023-12-04T06:57:39;101094.00;;;2.57;100.00
12349;BME280;5974;42.710;27.258;2023-12-04T07:00:07;101093.03;;;2.44;100.00
12349;BME280;5974;42.710;27.258;2023-12-04T07:02:37;101094.03;;;2.58;100.00
12349;BME280;5974;42.710;27.258;2023-12-04T07:05:05;101084.44;;;2.47;100.00
12349;BME280;5974;42.710;27.258;2023-12-04T07:07:32;101114.53;;;2.42;100.00
12349;BME280;5974;42.710;27.258;2023-12-04T07:09:59;101097.88;;;2.09;100.00
12349;BME280;5974;42.710;27.258;2023-12-04T07:12:26;101098.09;;;2.31;100.00
12349;BME280;5974;42.710;27.258;2023-12-04T07:14:54;101094.75;;;2.42;100.00
12349;BME280;5974;42.710;27.258;2023-12-04T07:17:20;101101.50;;;2.28;100.00
12349;BME280;5974;42.710;27.258;2023-12-04T07:19:47;101100.69;;;2.35;100.00
12349;BME280;5974;42.710;27.258;2023-12-04T07:22:14;101110.16;;;2.35;100.00
12349;BME280;5974;42.710;27.258;2023-12-04T07:24:41;101077.34;;;2.20;100.00
12349;BME280;5974;42.710;27.258;2023-12-04T07:27:08;101120.59;;;2.50;100.00
12349;BME280;5974;42.710;27.258;2023-12-04T07:29:35;101122.28;;;2.46;100.00
12349;BME280;5974;42.710;27.258;2023-12-04T07:32:05;101132.91;;;2.83;100.00
12349;BME280;5974;42.710;27.258;2023-12-04T07:34:32;101128.78;;;3.12;100.00
12349;BME280;5974;42.710;27.258;2023-12-04T07:36:59;101113.34;;;3.19;100.00
12349;BME280;5974;42.710;27.258;2023-12-04T07:39:26;101112.50;;;3.29;100.00
12349;BME280;5974;42.710;27.258;2023-12-04T07:41:52;101115.16;;;3.39;100.00
12349;BME280;5974;42.710;27.258;2023-12-04T07:44:19;101104.00;;;3.55;100.00
12349;BME280;5974;42.710;27.258;2023-12-04T07:46:46;101097.16;;;3.64;100.00
12349;BME280;5974;42.710;27.258;2023-12-04T07:49:14;101101.47;;;3.59;100.00
12349;BME280;5974;42.710;27.258;2023-12-04T07:51:41;101107.56;;;3.79;100.00
12349;BME280;5974;42.710;27.258;2023-12-04T07:54:09;101108.34;;;3.63;100.00
12349;BME280;5974;42.710;27.258;2023-12-04T07:56:35;101103.28;;;3.94;100.00
12349;BME280;5974;42.710;27.258;2023-12-04T07:59:02;101104.97;;;3.78;100.00
12349;BME280;5974;42.710;27.258;2023-12-04T08:01:29;101112.69;;;3.67;100.00
12349;BME280;5974;42.710;27.258;2023-12-04T08:03:56;101115.31;;;3.79;100.00
12349;BME280;5974;42.710;27.258;2023-12-04T08:06:24;101116.97;;;3.59;100.00
12349;BME280;5974;42.710;27.258;2023-12-04T08:08:51;101116.03;;;3.42;100.00
12349;BME280;5974;42.710;27.258;2023-12-04T08:11:18;101110.88;;;3.44;100.00
12349;BME280;5974;42.710;27.258;2023-12-04T08:13:45;101121.28;;;3.59;100.00
12349;BME280;5974;42.710;27.258;2023-12-04T08:16:14;101103.91;;;3.31;100.00
12349;BME280;5974;42.710;27.258;2023-12-04T08:18:41;101116.94;;;3.52;100.00
12349;BME280;5974;42.710;27.258;2023-12-04T08:21:09;101123.88;;;3.62;100.00
12349;BME280;5974;42.710;27.258;2023-12-04T08:23:37;101119.56;;;3.61;100.00
12349;BME280;5974;42.710;27.258;2023-12-04T08:26:04;101126.41;;;3.51;100.00
12349;BME280;5974;42.710;27.258;2023-12-04T08:28:31;101117.03;;;3.77;100.00
12349;BME280;5974;42.710;27.258;2023-12-04T08:30:57;101123.13;;;3.93;100.00
12349;BME280;5974;42.710;27.258;2023-12-04T08:33:24;101125.59;;;3.64;100.00
12349;BME280;5974;42.710;27.258;2023-12-04T08:35:52;101126.38;;;3.45;100.00
12349;BME280;5974;42.710;27.258;2023-12-04T08:38:19;101121.19;;;3.35;100.00
12349;BME280;5974;42.710;27.258;2023-12-04T08:40:47;101122.03;;;3.29;100.00
12349;BME280;5974;42.710;27.258;2023-12-04T08:43:14;101122.84;;;3.22;100.00
12349;BME280;5974;42.710;27.258;2023-12-04T08:45:41;101118.53;;;3.22;100.00
12349;BME280;5974;42.710;27.258;2023-12-04T08:48:07;101121.25;;;3.50;100.00
12349;BME280;5974;42.710;27.258;2023-12-04T08:50:35;101107.47;;;3.52;100.00
12349;BME280;5974;42.710;27.258;2023-12-04T08:53:03;101103.19;;;3.59;100.00
12349;BME280;5974;42.710;27.258;2023-12-04T08:55:30;101105.81;;;3.71;100.00
12349;BME280;5974;42.710;27.258;2023-12-04T08:57:58;101105.75;;;3.57;100.00
12349;BME280;5974;42.710;27.258;2023-12-04T09:00:25;101098.00;;;3.60;100.00
12349;BME280;5974;42.710;27.258;2023-12-04T09:02:52;101102.38;;;3.76;100.00
12349;BME280;5974;42.710;27.258;2023-12-04T09:05:19;101110.97;;;3.78;100.00
12349;BME280;5974;42.710;27.258;2023-12-04T09:07:45;101104.97;;;3.76;100.00
12349;BME280;5974;42.710;27.258;2023-12-04T09:10:12;101094.56;;;3.58;100.00
12349;BME280;5974;42.710;27.258;2023-12-04T09:12:39;101079.00;;;3.49;100.00
12349;BME280;5974;42.710;27.258;2023-12-04T09:15:07;101095.47;;;3.71;100.00
12349;BME280;5974;42.710;27.258;2023-12-04T09:17:34;101098.13;;;3.97;100.00
12349;BME280;5974;42.710;27.258;2023-12-04T09:20:01;101094.66;;;4.07;100.00
12349;BME280;5974;42.710;27.258;2023-12-04T09:22:28;101094.69;;;4.13;100.00
12349;BME280;5974;42.710;27.258;2023-12-04T09:24:55;101091.19;;;3.77;100.00
12349;BME280;5974;42.710;27.258;2023-12-04T09:27:22;101098.13;;;3.94;100.00
12349;BME280;5974;42.710;27.258;2023-12-04T09:29:49;101086.06;;;4.17;100.00
12349;BME280;5974;42.710;27.258;2023-12-04T09:32:17;101071.38;;;4.07;100.00
12349;BME280;5974;42.710;27.258;2023-12-04T09:34:44;101074.84;;;4.07;100.00
12349;BME280;5974;42.710;27.258;2023-12-04T09:37:10;101077.44;;;4.04;100.00
12349;BME280;5974;42.710;27.258;2023-12-04T09:39:37;101083.44;;;4.00;100.00
12349;BME280;5974;42.710;27.258;2023-12-04T09:42:05;101066.22;;;3.99;100.00
12349;BME280;5974;42.710;27.258;2023-12-04T09:44:34;101068.78;;;3.92;100.00
12349;BME280;5974;42.710;27.258;2023-12-04T09:47:02;101074.81;;;3.83;100.00
12349;BME280;5974;42.710;27.258;2023-12-04T09:49:31;101077.38;;;3.78;100.00
12349;BME280;5974;42.710;27.258;2023-12-04T09:52:00;101060.16;;;3.87;100.00
12349;BME280;5974;42.710;27.258;2023-12-04T09:54:29;101075.75;;;4.30;100.00
12349;BME280;5974;42.710;27.258;2023-12-04T09:56:56;101067.97;;;4.27;100.00
12349;BME280;5974;42.710;27.258;2023-12-04T09:59:24;101067.97;;;4.35;100.00
12349;BME280;5974;42.710;27.258;2023-12-04T10:01:51;101077.47;;;4.42;100.00
12349;BME280;5974;42.710;27.258;2023-12-04T10:04:18;101067.94;;;4.47;100.00
12349;BME280;5974;42.710;27.258;2023-12-04T10:06:49;101046.38;;;4.42;100.00
12349;BME280;5974;42.710;27.258;2023-12-04T10:09:17;101085.22;;;4.47;100.00
12349;BME280;5974;42.710;27.258;2023-12-04T10:11:44;101069.69;;;4.31;100.00
12349;BME280;5974;42.710;27.258;2023-12-04T10:14:15;101072.25;;;4.63;100.00
12349;BME280;5974;42.710;27.258;2023-12-04T10:16:43;101071.41;;;4.54;100.00
12349;BME280;5974;42.710;27.258;2023-12-04T10:19:18;101062.78;;;4.40;100.00
12349;BME280;5974;42.710;27.258;2023-12-04T10:21:48;101071.41;;;4.55;100.00
12349;BME280;5974;42.710;27.258;2023-12-04T10:24:28;101065.34;;;4.65;100.00
12349;BME280;5974;42.710;27.258;2023-12-04T10:26:55;101061.91;;;4.69;100.00
12349;BME280;5974;42.710;27.258;2023-12-04T10:29:23;101061.88;;;4.72;100.00
12349;BME280;5974;42.710;27.258;2023-12-04T10:31:50;101063.59;;;4.82;100.00
12349;BME280;5974;42.710;27.258;2023-12-04T10:34:18;101061.84;;;4.97;100.00
12349;BME280;5974;42.710;27.258;2023-12-04T10:36:47;101055.69;;;5.26;100.00
12349;BME280;5974;42.710;27.258;2023-12-04T10:39:14;101066.06;;;5.25;100.00
12349;BME280;5974;42.710;27.258;2023-12-04T10:41:43;101066.81;;;5.50;100.00
12349;BME280;5974;42.710;27.258;2023-12-04T10:44:10;101059.09;;;5.37;100.00
12349;BME280;5974;42.710;27.258;2023-12-04T10:46:43;101063.47;;;5.20;100.00
12349;BME280;5974;42.710;27.258;2023-12-04T10:49:13;101059.09;;;5.37;100.00
12349;BME280;5974;42.710;27.258;2023-12-04T10:51:40;101057.41;;;5.30;100.00
12349;BME280;5974;42.710;27.258;2023-12-04T10:54:08;101052.94;;;5.61;100.00
12349;BME280;5974;42.710;27.258;2023-12-04T10:56:39;101058.88;;;5.75;100.00
12349;BME280;5974;42.710;27.258;2023-12-04T10:59:11;101058.91;;;5.74;100.00
12349;BME280;5974;42.710;27.258;2023-12-04T11:01:40;101045.91;;;5.75;100.00
12349;BME280;5974;42.710;27.258;2023-12-04T11:04:12;101048.34;;;6.07;100.00
12349;BME280;5974;42.710;27.258;2023-12-04T11:06:44;101054.00;;;5.12;100.00
12349;BME280;5974;42.710;27.258;2023-12-04T11:09:15;101060.97;;;4.95;100.00
12349;BME280;5974;42.710;27.258;2023-12-04T11:11:47;101067.88;;;4.86;100.00
12349;BME280;5974;42.710;27.258;2023-12-04T11:14:18;101055.03;;;4.52;100.00
12349;BME280;5974;42.710;27.258;2023-12-04T11:16:49;101040.25;;;4.90;100.00
12349;BME280;5974;42.710;27.258;2023-12-04T11:19:22;101048.00;;;4.99;100.00
12349;BME280;5974;42.710;27.258;2023-12-04T11:21:53;101080.84;;;4.86;100.00
12349;BME280;5974;42.710;27.258;2023-12-04T11:24:21;101067.03;;;4.90;100.00
12349;BME280;5974;42.710;27.258;2023-12-04T11:26:48;101064.38;;;5.09;100.00
12349;BME280;5974;42.710;27.258;2023-12-04T11:29:17;101061.81;;;5.07;100.00
12349;BME280;5974;42.710;27.258;2023-12-04T11:31:44;101040.19;;;5.13;100.00
12349;BME280;5974;42.710;27.258;2023-12-04T11:34:12;101054.00;;;5.16;100.00
12349;BME280;5974;42.710;27.258;2023-12-04T11:36:39;101048.06;;;4.76;100.00
12349;BME280;5974;42.710;27.258;2023-12-04T11:39:09;101028.16;;;4.97;100.00
12349;BME280;5974;42.710;27.258;2023-12-04T11:41:37;101054.03;;;5.09;100.00
12349;BME280;5974;42.710;27.258;2023-12-04T11:44:11;101059.16;;;5.24;100.00
12349;BME280;5974;42.710;27.258;2023-12-04T11:46:55;101003.97;;;4.90;100.00
12349;BME280;5974;42.710;27.258;2023-12-04T11:49:29;101054.00;;;5.18;100.00
12349;BME280;5974;42.710;27.258;2023-12-04T11:51:57;101066.97;;;5.13;100.00
12349;BME280;5974;42.710;27.258;2023-12-04T11:54:26;101069.53;;;5.25;100.00
12349;BME280;5974;42.710;27.258;2023-12-04T11:59:43;101047.97;;;5.13;98.39
12349;BME280;5974;42.710;27.258;2023-12-04T12:02:10;101065.25;;;5.05;98.93
12349;BME280;5974;42.710;27.258;2023-12-04T12:04:37;101055.72;;;5.14;98.16
12349;BME280;5974;42.710;27.258;2023-12-04T12:07:05;101043.69;;;4.97;100.00
12349;BME280;5974;42.710;27.258;2023-12-04T12:09:32;101052.28;;;5.09;100.00
12349;BME280;5974;42.710;27.258;2023-12-04T12:12:01;101061.78;;;5.15;100.00
12349;BME280;5974;42.710;27.258;2023-12-04T12:14:28;101067.78;;;5.27;100.00
12349;BME280;5974;42.710;27.258;2023-12-04T12:16:55;101053.75;;;5.66;99.48
12349;BME280;5974;42.710;27.258;2023-12-04T12:19:22;101063.47;;;5.25;99.14
12349;BME280;5974;42.710;27.258;2023-12-04T12:21:49;101057.47;;;5.20;99.93
12349;BME280;5974;42.710;27.258;2023-12-04T12:24:17;101065.06;;;5.59;100.00
12349;BME280;5974;42.710;27.258;2023-12-04T12:26:44;101063.16;;;5.93;99.08
12349;BME280;5974;42.710;27.258;2023-12-04T12:29:12;101063.25;;;5.75;97.79
12349;BME280;5974;42.710;27.258;2023-12-04T12:31:39;101059.81;;;5.71;97.08
12349;BME280;5974;42.710;27.258;2023-12-04T12:34:06;101068.47;;;5.66;96.11
12349;BME280;5974;42.710;27.258;2023-12-04T12:36:33;101064.06;;;5.75;97.80
12349;BME280;5974;42.710;27.258;2023-12-04T12:39:00;101048.72;;;5.36;96.96
12349;BME280;5974;42.710;27.258;2023-12-04T12:41:29;101072.09;;;5.24;97.12
12349;BME280;5974;42.710;27.258;2023-12-04T12:43:55;101059.22;;;5.10;97.98
12349;BME280;5974;42.710;27.258;2023-12-04T12:46:24;101034.19;;;4.99;98.72
12349;BME280;5974;42.710;27.258;2023-12-04T12:48:51;101072.97;;;5.27;98.10
12349;BME280;5974;42.710;27.258;2023-12-04T12:51:18;101072.88;;;5.53;98.14
12349;BME280;5974;42.710;27.258;2023-12-04T12:53:44;101063.53;;;5.10;95.96
12349;BME280;5974;42.710;27.258;2023-12-04T12:56:11;101086.91;;;4.88;96.62